sensor_id;sensor_type;location;lat;lon;timestamp;P1;durP1;ratioP1;P2;durP2;ratioP2
17790;SDS011;9019;48.132;-1.210;2024-02-15T00:01:04;7.27;;;5.60;;
17790;SDS011;9019;48.132;-1.210;2024-02-15T00:03:32;9.10;;;5.70;;
17790;SDS011;9019;48.132;-1.210;2024-02-15T00:06:00;8.63;;;5.57;;
17790;SDS011;9019;48.132;-1.210;2024-02-15T00:08:29;8.03;;;5.83;;
17790;SDS011;9019;48.132;-1.210;2024-02-15T00:10:57;6.30;;;5.00;;
17790;SDS011;9019;48.132;-1.210;2024-02-15T00:13:25;7.83;;;5.50;;
17790;SDS011;9019;48.132;-1.210;2024-02-15T00:15:52;11.13;;;5.87;;
17790;SDS011;9019;48.132;-1.210;2024-02-15T00:18:19;9.30;;;5.77;;
17790;SDS011;9019;48.132;-1.210;2024-02-15T00:20:46;7.47;;;5.30;;
17790;SDS011;9019;48.132;-1.210;2024-02-15T00:23:14;9.30;;;6.00;;
17790;SDS011;9019;48.132;-1.210;2024-02-15T00:25:43;7.47;;;5.63;;
17790;SDS011;9019;48.132;-1.210;2024-02-15T00:28:10;7.40;;;5.83;;
17790;SDS011;9019;48.132;-1.210;2024-02-15T00:30:38;9.90;;;5.83;;
17790;SDS011;9019;48.132;-1.210;2024-02-15T00:33:05;8.80;;;6.50;;
17790;SDS011;9019;48.132;-1.210;2024-02-15T00:35:32;8.90;;;6.10;;
17790;SDS011;9019;48.132;-1.210;2024-02-15T00:38:00;7.63;;;5.93;;
17790;SDS011;9019;48.132;-1.210;2024-02-15T00:40:27;9.60;;;6.00;;
17790;SDS011;9019;48.132;-1.210;2024-02-15T00:42:56;7.97;;;6.23;;
17790;SDS011;9019;48.132;-1.210;2024-02-15T00:45:23;8.87;;;6.27;;
17790;SDS011;9019;48.132;-1.210;2024-02-15T00:47:50;7.20;;;6.00;;
17790;SDS011;9019;48.132;-1.210;2024-02-15T00:50:19;8.40;;;6.37;;
17790;SDS011;9019;48.132;-1.210;2024-02-15T00:52:46;11.50;;;5.90;;
17790;SDS011;9019;48.132;-1.210;2024-02-15T00:55:13;7.37;;;6.10;;
17790;SDS011;9019;48.132;-1.210;2024-02-15T00:57:41;8.63;;;6.50;;
17790;SDS011;9019;48.132;-1.210;2024-02-15T01:00:10;8.87;;;6.70;;
17790;SDS011;9019;48.132;-1.210;2024-02-15T01:02:38;8.33;;;6.40;;
17790;SDS011;9019;48.132;-1.210;2024-02-15T01:05:05;9.23;;;6.20;;
17790;SDS011;9019;48.132;-1.210;2024-02-15T01:07:32;8.73;;;6.77;;
17790;SDS011;9019;48.132;-1.210;2024-02-15T01:09:59;9.00;;;6.60;;
17790;SDS011;9019;48.132;-1.210;2024-02-15T01:12:28;7.87;;;6.87;;
17790;SDS011;9019;48.132;-1.210;2024-02-15T01:14:55;16.47;;;7.10;;
17790;SDS011;9019;48.132;-1.210;2024-02-15T01:17:25;8.00;;;6.40;;
17790;SDS011;9019;48.132;-1.210;2024-02-15T01:19:52;8.10;;;6.10;;
17790;SDS011;9019;48.132;-1.210;2024-02-15T01:22:20;8.17;;;6.10;;
17790;SDS011;9019;48.132;-1.210;2024-02-15T01:24:48;10.27;;;7.07;;
17790;SDS011;9019;48.132;-1.210;2024-02-15T01:27:15;8.33;;;6.67;;
17790;SDS011;9019;48.132;-1.210;2024-02-15T01:29:43;9.53;;;7.07;;
17790;SDS011;9019;48.132;-1.210;2024-02-15T01:32:10;8.13;;;6.60;;
17790;SDS011;9019;48.132;-1.210;2024-02-15T01:34:39;9.37;;;6.37;;
17790;SDS011;9019;48.132;-1.210;2024-02-15T01:37:07;7.97;;;6.43;;
17790;SDS011;9019;48.132;-1.210;2024-02-15T01:39:35;7.53;;;6.00;;
17790;SDS011;9019;48.132;-1.210;2024-02-15T01:42:03;9.77;;;6.30;;
17790;SDS011;9019;48.132;-1.210;2024-02-15T01:44:30;8.10;;;6.23;;
17790;SDS011;9019;48.132;-1.210;2024-02-15T01:46:57;7.43;;;5.90;;
17790;SDS011;9019;48.132;-1.210;2024-02-15T01:49:24;8.30;;;6.30;;
17790;SDS011;9019;48.132;-1.210;2024-02-15T01:51:53;7.57;;;5.63;;
17790;SDS011;9019;48.132;-1.210;2024-02-15T01:54:23;7.90;;;5.80;;
17790;SDS011;9019;48.132;-1.210;2024-02-15T01:56:51;6.80;;;5.90;;
17790;SDS011;9019;48.132;-1.210;2024-02-15T01:59:17;7.03;;;5.80;;
17790;SDS011;9019;48.132;-1.210;2024-02-15T02:01:45;8.53;;;5.90;;
17790;SDS011;9019;48.132;-1.210;2024-02-15T02:04:12;6.87;;;5.90;;
17790;SDS011;9019;48.132;-1.210;2024-02-15T02:06:39;8.07;;;5.67;;
17790;SDS011;9019;48.132;-1.210;2024-02-15T02:09:08;6.93;;;5.57;;
17790;SDS011;9019;48.132;-1.210;2024-02-15T02:11:39;7.30;;;5.77;;
17790;SDS011;9019;48.132;-1.210;2024-02-15T02:14:05;8.33;;;5.90;;
17790;SDS011;9019;48.132;-1.210;2024-02-15T02:16:33;9.80;;;5.67;;
17790;SDS011;9019;48.132;-1.210;2024-02-15T02:19:00;7.00;;;5.33;;
17790;SDS011;9019;48.132;-1.210;2024-02-15T02:21:33;6.10;;;5.30;;
17790;SDS011;9019;48.132;-1.210;2024-02-15T02:24:02;7.57;;;5.27;;
17790;SDS011;9019;48.132;-1.210;2024-02-15T02:26:33;7.63;;;5.40;;
17790;SDS011;9019;48.132;-1.210;2024-02-15T02:29:01;7.37;;;5.70;;
17790;SDS011;9019;48.132;-1.210;2024-02-15T02:31:32;7.90;;;5.27;;
17790;SDS011;9019;48.132;-1.210;2024-02-15T02:33:59;7.67;;;5.53;;
17790;SDS011;9019;48.132;-1.210;2024-02-15T02:36:27;8.13;;;5.03;;
17790;SDS011;9019;48.132;-1.210;2024-02-15T02:38:54;7.70;;;5.13;;
17790;SDS011;9019;48.132;-1.210;2024-02-15T02:41:25;6.30;;;5.23;;
17790;SDS011;9019;48.132;-1.210;2024-02-15T02:43:54;6.77;;;5.03;;
17790;SDS011;9019;48.132;-1.210;2024-02-15T02:46:22;8.43;;;5.47;;
17790;SDS011;9019;48.132;-1.210;2024-02-15T02:48:49;7.67;;;5.20;;
17790;SDS011;9019;48.132;-1.210;2024-02-15T02:51:16;6.70;;;5.50;;
17790;SDS011;9019;48.132;-1.210;2024-02-15T02:53:44;10.27;;;5.43;;
17790;SDS011;9019;48.132;-1.210;2024-02-15T02:56:11;8.37;;;5.37;;
17790;SDS011;9019;48.132;-1.210;2024-02-15T02:58:39;6.07;;;5.43;;
17790;SDS011;9019;48.132;-1.210;2024-02-15T03:01:08;7.70;;;5.50;;
17790;SDS011;9019;48.132;-1.210;2024-02-15T03:03:36;8.23;;;5.20;;
17790;SDS011;9019;48.132;-1.210;2024-02-15T03:06:04;8.50;;;5.20;;
17790;SDS011;9019;48.132;-1.210;2024-02-15T03:08:32;7.57;;;5.20;;
17790;SDS011;9019;48.132;-1.210;2024-02-15T03:10:59;6.27;;;5.17;;
17790;SDS011;9019;48.132;-1.210;2024-02-15T03:13:27;7.03;;;5.27;;
17790;SDS011;9019;48.132;-1.210;2024-02-15T03:15:54;6.93;;;5.33;;
17790;SDS011;9019;48.132;-1.210;2024-02-15T03:18:23;7.07;;;5.13;;
17790;SDS011;9019;48.132;-1.210;2024-02-15T03:20:50;8.10;;;5.37;;
17790;SDS011;9019;48.132;-1.210;2024-02-15T03:23:17;8.80;;;5.40;;
17790;SDS011;9019;48.132;-1.210;2024-02-15T03:25:44;7.70;;;5.40;;
17790;SDS011;9019;48.132;-1.210;2024-02-15T03:28:11;7.73;;;5.47;;
17790;SDS011;9019;48.132;-1.210;2024-02-15T03:30:40;6.20;;;5.03;;
17790;SDS011;9019;48.132;-1.210;2024-02-15T03:33:07;6.77;;;5.40;;
17790;SDS011;9019;48.132;-1.210;2024-02-15T03:35:36;6.43;;;4.83;;
17790;SDS011;9019;48.132;-1.210;2024-02-15T03:38:03;6.90;;;4.80;;
17790;SDS011;9019;48.132;-1.210;2024-02-15T03:40:31;7.70;;;5.20;;
17790;SDS011;9019;48.132;-1.210;2024-02-15T03:42:59;6.07;;;5.00;;
17790;SDS011;9019;48.132;-1.210;2024-02-15T03:45:26;7.23;;;5.03;;
17790;SDS011;9019;48.132;-1.210;2024-02-15T03:47:54;5.27;;;4.67;;
17790;SDS011;9019;48.132;-1.210;2024-02-15T03:50:21;7.97;;;5.00;;
17790;SDS011;9019;48.132;-1.210;2024-02-15T03:52:50;8.97;;;5.40;;
17790;SDS011;9019;48.132;-1.210;2024-02-15T03:55:17;6.20;;;5.37;;
17790;SDS011;9019;48.132;-1.210;2024-02-15T03:57:47;5.20;;;4.70;;
17790;SDS011;9019;48.132;-1.210;2024-02-15T04:00:14;7.37;;;5.00;;
17790;SDS011;9019;48.132;-1.210;2024-02-15T04:02:45;8.10;;;5.43;;
17790;SDS011;9019;48.132;-1.210;2024-02-15T04:05:13;7.20;;;5.13;;
17790;SDS011;9019;48.132;-1.210;2024-02-15T04:07:43;7.97;;;5.00;;
17790;SDS011;9019;48.132;-1.210;2024-02-15T04:10:11;7.93;;;5.33;;
17790;SDS011;9019;48.132;-1.210;2024-02-15T04:12:38;6.30;;;4.70;;
17790;SDS011;9019;48.132;-1.210;2024-02-15T04:15:07;6.00;;;5.07;;
17790;SDS011;9019;48.132;-1.210;2024-02-15T04:17:38;6.63;;;4.73;;
17790;SDS011;9019;48.132;-1.210;2024-02-15T04:20:06;6.53;;;4.73;;
17790;SDS011;9019;48.132;-1.210;2024-02-15T04:22:35;8.20;;;5.23;;
17790;SDS011;9019;48.132;-1.210;2024-02-15T04:25:03;7.37;;;5.20;;
17790;SDS011;9019;48.132;-1.210;2024-02-15T04:27:32;6.23;;;4.70;;
17790;SDS011;9019;48.132;-1.210;2024-02-15T04:29:59;7.43;;;5.10;;
17790;SDS011;9019;48.132;-1.210;2024-02-15T04:32:29;7.23;;;4.70;;
17790;SDS011;9019;48.132;-1.210;2024-02-15T04:34:58;6.73;;;4.70;;
17790;SDS011;9019;48.132;-1.210;2024-02-15T04:37:26;5.97;;;5.00;;
17790;SDS011;9019;48.132;-1.210;2024-02-15T04:39:57;6.07;;;5.00;;
17790;SDS011;9019;48.132;-1.210;2024-02-15T04:42:33;5.93;;;4.80;;
17790;SDS011;9019;48.132;-1.210;2024-02-15T04:45:02;6.50;;;4.83;;
17790;SDS011;9019;48.132;-1.210;2024-02-15T04:47:30;7.43;;;5.03;;
17790;SDS011;9019;48.132;-1.210;2024-02-15T04:49:57;8.00;;;4.80;;
17790;SDS011;9019;48.132;-1.210;2024-02-15T04:52:25;6.50;;;4.80;;
17790;SDS011;9019;48.132;-1.210;2024-02-15T04:54:52;7.23;;;4.70;;
17790;SDS011;9019;48.132;-1.210;2024-02-15T04:57:20;6.87;;;5.00;;
17790;SDS011;9019;48.132;-1.210;2024-02-15T04:59:48;7.73;;;5.00;;
17790;SDS011;9019;48.132;-1.210;2024-02-15T05:02:15;6.93;;;5.00;;
17790;SDS011;9019;48.132;-1.210;2024-02-15T05:04:44;7.83;;;4.53;;
17790;SDS011;9019;48.132;-1.210;2024-02-15T05:07:12;7.53;;;4.43;;
17790;SDS011;9019;48.132;-1.210;2024-02-15T05:09:43;6.93;;;4.63;;
17790;SDS011;9019;48.132;-1.210;2024-02-15T05:12:10;5.83;;;4.60;;
17790;SDS011;9019;48.132;-1.210;2024-02-15T05:14:49;7.20;;;4.47;;
17790;SDS011;9019;48.132;-1.210;2024-02-15T05:17:18;5.07;;;4.40;;
17790;SDS011;9019;48.132;-1.210;2024-02-15T05:19:46;7.50;;;4.83;;
17790;SDS011;9019;48.132;-1.210;2024-02-15T05:22:14;5.80;;;4.83;;
17790;SDS011;9019;48.132;-1.210;2024-02-15T05:24:41;6.30;;;4.33;;
17790;SDS011;9019;48.132;-1.210;2024-02-15T05:27:08;7.20;;;4.83;;
17790;SDS011;9019;48.132;-1.210;2024-02-15T05:29:35;5.47;;;4.10;;
17790;SDS011;9019;48.132;-1.210;2024-02-15T05:32:06;6.13;;;4.70;;
17790;SDS011;9019;48.132;-1.210;2024-02-15T05:34:34;6.17;;;4.53;;
17790;SDS011;9019;48.132;-1.210;2024-02-15T05:37:04;6.33;;;4.67;;
17790;SDS011;9019;48.132;-1.210;2024-02-15T05:39:32;6.33;;;4.60;;
17790;SDS011;9019;48.132;-1.210;2024-02-15T05:41:59;6.37;;;4.77;;
17790;SDS011;9019;48.132;-1.210;2024-02-15T05:44:27;5.67;;;4.10;;
17790;SDS011;9019;48.132;-1.210;2024-02-15T05:46:54;6.17;;;5.03;;
17790;SDS011;9019;48.132;-1.210;2024-02-15T05:49:22;7.07;;;4.40;;
17790;SDS011;9019;48.132;-1.210;2024-02-15T05:51:50;7.63;;;4.90;;
17790;SDS011;9019;48.132;-1.210;2024-02-15T05:54:18;7.20;;;4.73;;
17790;SDS011;9019;48.132;-1.210;2024-02-15T05:56:47;7.63;;;4.57;;
17790;SDS011;9019;48.132;-1.210;2024-02-15T05:59:17;7.47;;;4.60;;
17790;SDS011;9019;48.132;-1.210;2024-02-15T06:01:45;5.70;;;4.50;;
17790;SDS011;9019;48.132;-1.210;2024-02-15T06:04:13;6.53;;;4.40;;
17790;SDS011;9019;48.132;-1.210;2024-02-15T06:06:43;7.87;;;4.80;;
17790;SDS011;9019;48.132;-1.210;2024-02-15T06:09:13;6.20;;;4.60;;
17790;SDS011;9019;48.132;-1.210;2024-02-15T06:11:41;6.40;;;4.23;;
17790;SDS011;9019;48.132;-1.210;2024-02-15T06:14:10;7.53;;;4.40;;
17790;SDS011;9019;48.132;-1.210;2024-02-15T06:16:41;7.50;;;4.40;;
17790;SDS011;9019;48.132;-1.210;2024-02-15T06:19:08;6.13;;;4.33;;
17790;SDS011;9019;48.132;-1.210;2024-02-15T06:21:36;6.10;;;3.90;;
17790;SDS011;9019;48.132;-1.210;2024-02-15T06:24:04;6.70;;;3.93;;
17790;SDS011;9019;48.132;-1.210;2024-02-15T06:26:32;6.80;;;4.30;;
17790;SDS011;9019;48.132;-1.210;2024-02-15T06:28:59;5.27;;;3.43;;
17790;SDS011;9019;48.132;-1.210;2024-02-15T06:31:44;7.33;;;3.67;;
17790;SDS011;9019;48.132;-1.210;2024-02-15T06:34:29;9.13;;;3.60;;
17790;SDS011;9019;48.132;-1.210;2024-02-15T06:37:26;5.10;;;3.67;;
17790;SDS011;9019;48.132;-1.210;2024-02-15T06:40:20;4.93;;;3.47;;
17790;SDS011;9019;48.132;-1.210;2024-02-15T06:42:48;6.33;;;3.80;;
17790;SDS011;9019;48.132;-1.210;2024-02-15T06:45:16;6.33;;;3.77;;
17790;SDS011;9019;48.132;-1.210;2024-02-15T06:47:44;6.67;;;3.83;;
17790;SDS011;9019;48.132;-1.210;2024-02-15T06:50:12;8.10;;;3.80;;
17790;SDS011;9019;48.132;-1.210;2024-02-15T06:52:39;5.83;;;3.53;;
17790;SDS011;9019;48.132;-1.210;2024-02-15T06:55:07;7.20;;;3.87;;
17790;SDS011;9019;48.132;-1.210;2024-02-15T06:57:38;5.07;;;3.50;;
17790;SDS011;9019;48.132;-1.210;2024-02-15T07:00:06;6.73;;;3.30;;
17790;SDS011;9019;48.132;-1.210;2024-02-15T07:02:34;5.33;;;3.20;;
17790;SDS011;9019;48.132;-1.210;2024-02-15T07:05:01;4.20;;;2.87;;
17790;SDS011;9019;48.132;-1.210;2024-02-15T07:07:29;4.67;;;2.80;;
17790;SDS011;9019;48.132;-1.210;2024-02-15T07:09:56;6.30;;;3.60;;
17790;SDS011;9019;48.132;-1.210;2024-02-15T07:12:24;6.00;;;3.30;;
17790;SDS011;9019;48.132;-1.210;2024-02-15T07:14:52;4.47;;;2.73;;
17790;SDS011;9019;48.132;-1.210;2024-02-15T07:17:20;5.23;;;2.90;;
17790;SDS011;9019;48.132;-1.210;2024-02-15T07:19:47;3.97;;;2.70;;
17790;SDS011;9019;48.132;-1.210;2024-02-15T07:22:15;4.37;;;3.00;;
17790;SDS011;9019;48.132;-1.210;2024-02-15T07:24:42;5.60;;;3.07;;
17790;SDS011;9019;48.132;-1.210;2024-02-15T07:27:09;4.93;;;2.40;;
17790;SDS011;9019;48.132;-1.210;2024-02-15T07:29:37;6.30;;;2.77;;
17790;SDS011;9019;48.132;-1.210;2024-02-15T07:32:07;4.70;;;2.90;;
17790;SDS011;9019;48.132;-1.210;2024-02-15T07:34:34;5.93;;;2.93;;
17790;SDS011;9019;48.132;-1.210;2024-02-15T07:37:02;3.93;;;2.70;;
17790;SDS011;9019;48.132;-1.210;2024-02-15T07:39:29;4.27;;;2.47;;
17790;SDS011;9019;48.132;-1.210;2024-02-15T07:41:56;4.80;;;2.60;;
17790;SDS011;9019;48.132;-1.210;2024-02-15T07:44:24;4.90;;;2.87;;
17790;SDS011;9019;48.132;-1.210;2024-02-15T07:46:55;3.80;;;2.40;;
17790;SDS011;9019;48.132;-1.210;2024-02-15T07:49:23;7.57;;;2.67;;
17790;SDS011;9019;48.132;-1.210;2024-02-15T07:51:50;4.63;;;2.43;;
17790;SDS011;9019;48.132;-1.210;2024-02-15T07:54:18;5.13;;;2.50;;
17790;SDS011;9019;48.132;-1.210;2024-02-15T07:56:46;3.90;;;2.20;;
17790;SDS011;9019;48.132;-1.210;2024-02-15T07:59:13;4.10;;;2.10;;
17790;SDS011;9019;48.132;-1.210;2024-02-15T08:01:41;5.03;;;2.10;;
17790;SDS011;9019;48.132;-1.210;2024-02-15T08:04:11;4.33;;;2.10;;
17790;SDS011;9019;48.132;-1.210;2024-02-15T08:06:39;5.80;;;2.40;;
17790;SDS011;9019;48.132;-1.210;2024-02-15T08:09:07;4.30;;;2.40;;
17790;SDS011;9019;48.132;-1.210;2024-02-15T08:11:38;5.77;;;2.17;;
17790;SDS011;9019;48.132;-1.210;2024-02-15T08:14:05;3.40;;;2.00;;
17790;SDS011;9019;48.132;-1.210;2024-02-15T08:16:35;3.00;;;2.00;;
17790;SDS011;9019;48.132;-1.210;2024-02-15T08:19:05;4.03;;;2.20;;
17790;SDS011;9019;48.132;-1.210;2024-02-15T08:21:32;4.23;;;1.97;;
17790;SDS011;9019;48.132;-1.210;2024-02-15T08:24:03;4.93;;;2.20;;
17790;SDS011;9019;48.132;-1.210;2024-02-15T08:26:31;4.40;;;2.20;;
17790;SDS011;9019;48.132;-1.210;2024-02-15T08:28:58;4.60;;;2.20;;
17790;SDS011;9019;48.132;-1.210;2024-02-15T08:31:25;3.13;;;2.10;;
17790;SDS011;9019;48.132;-1.210;2024-02-15T08:33:52;4.13;;;2.20;;
17790;SDS011;9019;48.132;-1.210;2024-02-15T08:36:19;2.87;;;1.97;;
17790;SDS011;9019;48.132;-1.210;2024-02-15T08:38:49;4.50;;;2.20;;
17790;SDS011;9019;48.132;-1.210;2024-02-15T08:41:17;4.63;;;2.13;;
17790;SDS011;9019;48.132;-1.210;2024-02-15T08:43:46;3.23;;;2.23;;
17790;SDS011;9019;48.132;-1.210;2024-02-15T08:46:13;3.53;;;2.10;;
17790;SDS011;9019;48.132;-1.210;2024-02-15T08:48:40;3.17;;;1.90;;
17790;SDS011;9019;48.132;-1.210;2024-02-15T08:51:08;5.03;;;2.47;;
17790;SDS011;9019;48.132;-1.210;2024-02-15T08:53:35;3.17;;;2.03;;
17790;SDS011;9019;48.132;-1.210;2024-02-15T08:56:03;3.03;;;1.80;;
17790;SDS011;9019;48.132;-1.210;2024-02-15T08:58:32;5.20;;;2.10;;
17790;SDS011;9019;48.132;-1.210;2024-02-15T09:00:59;3.50;;;2.00;;
17790;SDS011;9019;48.132;-1.210;2024-02-15T09:03:28;4.73;;;2.27;;
17790;SDS011;9019;48.132;-1.210;2024-02-15T09:05:55;3.30;;;1.90;;
17790;SDS011;9019;48.132;-1.210;2024-02-15T09:08:24;3.30;;;2.23;;
17790;SDS011;9019;48.132;-1.210;2024-02-15T09:10:51;5.00;;;2.20;;
17790;SDS011;9019;48.132;-1.210;2024-02-15T09:13:18;4.13;;;2.50;;
17790;SDS011;9019;48.132;-1.210;2024-02-15T09:15:49;4.63;;;2.40;;
17790;SDS011;9019;48.132;-1.210;2024-02-15T09:18:16;6.37;;;2.17;;
17790;SDS011;9019;48.132;-1.210;2024-02-15T09:20:46;3.90;;;2.30;;
17790;SDS011;9019;48.132;-1.210;2024-02-15T09:23:14;3.70;;;2.33;;
17790;SDS011;9019;48.132;-1.210;2024-02-15T09:25:41;5.87;;;2.10;;
17790;SDS011;9019;48.132;-1.210;2024-02-15T09:28:09;2.72;;;2.08;;
17790;SDS011;9019;48.132;-1.210;2024-02-15T09:30:36;6.13;;;2.50;;
17790;SDS011;9019;48.132;-1.210;2024-02-15T09:33:05;3.28;;;2.00;;
17790;SDS011;9019;48.132;-1.210;2024-02-15T09:35:33;5.05;;;2.03;;
17790;SDS011;9019;48.132;-1.210;2024-02-15T09:38:00;4.25;;;2.45;;
17790;SDS011;9019;48.132;-1.210;2024-02-15T09:40:27;3.92;;;2.10;;
17790;SDS011;9019;48.132;-1.210;2024-02-15T09:42:55;4.72;;;2.10;;
17790;SDS011;9019;48.132;-1.210;2024-02-15T09:45:22;3.80;;;2.47;;
17790;SDS011;9019;48.132;-1.210;2024-02-15T09:47:50;3.45;;;2.47;;
17790;SDS011;9019;48.132;-1.210;2024-02-15T09:50:19;3.55;;;2.13;;
17790;SDS011;9019;48.132;-1.210;2024-02-15T09:52:49;3.80;;;2.10;;
17790;SDS011;9019;48.132;-1.210;2024-02-15T09:55:16;4.25;;;2.15;;
17790;SDS011;9019;48.132;-1.210;2024-02-15T09:57:44;4.55;;;2.30;;
17790;SDS011;9019;48.132;-1.210;2024-02-15T10:00:12;3.67;;;2.10;;
17790;SDS011;9019;48.132;-1.210;2024-02-15T10:02:40;3.13;;;2.17;;
17790;SDS011;9019;48.132;-1.210;2024-02-15T10:05:09;3.53;;;2.00;;
17790;SDS011;9019;48.132;-1.210;2024-02-15T10:07:38;4.50;;;2.55;;
17790;SDS011;9019;48.132;-1.210;2024-02-15T10:12:52;3.72;;;2.20;;
17790;SDS011;9019;48.132;-1.210;2024-02-15T10:15:33;5.25;;;2.17;;
17790;SDS011;9019;48.132;-1.210;2024-02-15T10:18:01;4.15;;;2.30;;
17790;SDS011;9019;48.132;-1.210;2024-02-15T10:20:29;3.15;;;2.22;;
17790;SDS011;9019;48.132;-1.210;2024-02-15T10:23:10;5.20;;;2.60;;
17790;SDS011;9019;48.132;-1.210;2024-02-15T10:25:38;4.13;;;2.47;;
17790;SDS011;9019;48.132;-1.210;2024-02-15T10:28:05;3.95;;;2.60;;
17790;SDS011;9019;48.132;-1.210;2024-02-15T10:30:33;4.30;;;2.75;;
17790;SDS011;9019;48.132;-1.210;2024-02-15T10:33:00;4.78;;;2.67;;
17790;SDS011;9019;48.132;-1.210;2024-02-15T10:35:28;4.53;;;3.13;;
17790;SDS011;9019;48.132;-1.210;2024-02-15T10:38:04;4.82;;;3.13;;
17790;SDS011;9019;48.132;-1.210;2024-02-15T10:40:34;6.05;;;3.00;;
17790;SDS011;9019;48.132;-1.210;2024-02-15T10:43:03;5.30;;;3.03;;
17790;SDS011;9019;48.132;-1.210;2024-02-15T10:45:30;4.65;;;2.85;;
17790;SDS011;9019;48.132;-1.210;2024-02-15T10:47:57;4.88;;;3.33;;
17790;SDS011;9019;48.132;-1.210;2024-02-15T10:50:25;4.32;;;2.90;;
17790;SDS011;9019;48.132;-1.210;2024-02-15T10:52:53;5.88;;;3.28;;
17790;SDS011;9019;48.132;-1.210;2024-02-15T10:55:22;5.65;;;3.03;;
17790;SDS011;9019;48.132;-1.210;2024-02-15T10:57:53;6.85;;;3.10;;
17790;SDS011;9019;48.132;-1.210;2024-02-15T11:00:22;4.68;;;2.85;;
17790;SDS011;9019;48.132;-1.210;2024-02-15T11:02:58;5.35;;;2.85;;
17790;SDS011;9019;48.132;-1.210;2024-02-15T11:05:30;4.20;;;2.70;;
17790;SDS011;9019;48.132;-1.210;2024-02-15T11:07:59;3.90;;;2.60;;
17790;SDS011;9019;48.132;-1.210;2024-02-15T11:10:27;5.85;;;3.20;;
17790;SDS011;9019;48.132;-1.210;2024-02-15T11:12:56;4.65;;;2.70;;
17790;SDS011;9019;48.132;-1.210;2024-02-15T11:18:13;4.45;;;2.90;;
17790;SDS011;9019;48.132;-1.210;2024-02-15T11:21:02;4.70;;;2.70;;
17790;SDS011;9019;48.132;-1.210;2024-02-15T11:23:30;4.75;;;3.25;;
17790;SDS011;9019;48.132;-1.210;2024-02-15T11:25:57;5.18;;;2.75;;
17790;SDS011;9019;48.132;-1.210;2024-02-15T11:28:38;5.05;;;2.92;;
17790;SDS011;9019;48.132;-1.210;2024-02-15T11:31:09;4.68;;;3.10;;
17790;SDS011;9019;48.132;-1.210;2024-02-15T11:33:38;6.15;;;2.90;;
17790;SDS011;9019;48.132;-1.210;2024-02-15T11:36:09;4.15;;;2.80;;
17790;SDS011;9019;48.132;-1.210;2024-02-15T11:38:37;5.10;;;2.80;;
17790;SDS011;9019;48.132;-1.210;2024-02-15T11:41:06;5.18;;;2.90;;
17790;SDS011;9019;48.132;-1.210;2024-02-15T11:46:28;4.80;;;2.67;;
17790;SDS011;9019;48.132;-1.210;2024-02-15T11:48:57;5.03;;;2.70;;
17790;SDS011;9019;48.132;-1.210;2024-02-15T11:51:30;4.00;;;2.78;;
17790;SDS011;9019;48.132;-1.210;2024-02-15T11:54:05;3.72;;;2.50;;
17790;SDS011;9019;48.132;-1.210;2024-02-15T11:56:52;3.65;;;2.53;;
17790;SDS011;9019;48.132;-1.210;2024-02-15T11:59:30;4.07;;;2.50;;
17790;SDS011;9019;48.132;-1.210;2024-02-15T12:02:07;3.45;;;2.38;;
17790;SDS011;9019;48.132;-1.210;2024-02-15T12:04:52;3.83;;;2.45;;
17790;SDS011;9019;48.132;-1.210;2024-02-15T12:07:34;3.20;;;2.35;;
17790;SDS011;9019;48.132;-1.210;2024-02-15T12:10:19;4.00;;;2.80;;
17790;SDS011;9019;48.132;-1.210;2024-02-15T12:13:04;4.97;;;2.75;;
17790;SDS011;9019;48.132;-1.210;2024-02-15T12:15:56;6.50;;;2.85;;
17790;SDS011;9019;48.132;-1.210;2024-02-15T12:18:41;4.03;;;2.40;;
17790;SDS011;9019;48.132;-1.210;2024-02-15T12:21:09;5.07;;;2.90;;
17790;SDS011;9019;48.132;-1.210;2024-02-15T12:23:40;3.97;;;2.80;;
17790;SDS011;9019;48.132;-1.210;2024-02-15T12:26:08;5.13;;;2.15;;
17790;SDS011;9019;48.132;-1.210;2024-02-15T12:28:35;3.67;;;2.50;;
17790;SDS011;9019;48.132;-1.210;2024-02-15T12:31:03;4.22;;;2.75;;
17790;SDS011;9019;48.132;-1.210;2024-02-15T12:33:33;5.00;;;2.63;;
17790;SDS011;9019;48.132;-1.210;2024-02-15T12:36:03;3.35;;;2.45;;
17790;SDS011;9019;48.132;-1.210;2024-02-15T12:38:31;5.68;;;2.78;;
17790;SDS011;9019;48.132;-1.210;2024-02-15T12:41:00;3.85;;;2.50;;
17790;SDS011;9019;48.132;-1.210;2024-02-15T12:43:27;5.72;;;2.63;;
17790;SDS011;9019;48.132;-1.210;2024-02-15T12:45:55;4.97;;;2.42;;
17790;SDS011;9019;48.132;-1.210;2024-02-15T12:48:22;6.07;;;2.50;;
17790;SDS011;9019;48.132;-1.210;2024-02-15T12:50:50;3.80;;;2.65;;
17790;SDS011;9019;48.132;-1.210;2024-02-15T12:53:20;4.07;;;2.55;;
17790;SDS011;9019;48.132;-1.210;2024-02-15T12:55:52;4.93;;;2.60;;
17790;SDS011;9019;48.132;-1.210;2024-02-15T12:58:21;3.67;;;2.55;;
17790;SDS011;9019;48.132;-1.210;2024-02-15T13:00:49;5.22;;;2.40;;
17790;SDS011;9019;48.132;-1.210;2024-02-15T13:03:17;5.03;;;2.50;;
17790;SDS011;9019;48.132;-1.210;2024-02-15T13:05:44;5.20;;;2.88;;
17790;SDS011;9019;48.132;-1.210;2024-02-15T13:08:13;3.72;;;2.50;;
17790;SDS011;9019;48.132;-1.210;2024-02-15T13:10:43;3.85;;;2.40;;
17790;SDS011;9019;48.132;-1.210;2024-02-15T13:13:10;5.53;;;2.80;;
17790;SDS011;9019;48.132;-1.210;2024-02-15T13:15:40;4.38;;;2.70;;
17790;SDS011;9019;48.132;-1.210;2024-02-15T13:18:07;4.03;;;2.55;;
17790;SDS011;9019;48.132;-1.210;2024-02-15T13:20:38;4.90;;;2.78;;
17790;SDS011;9019;48.132;-1.210;2024-02-15T13:23:06;3.58;;;2.50;;
17790;SDS011;9019;48.132;-1.210;2024-02-15T13:25:40;4.03;;;2.72;;
17790;SDS011;9019;48.132;-1.210;2024-02-15T13:28:08;4.82;;;2.70;;
17790;SDS011;9019;48.132;-1.210;2024-02-15T13:30:35;4.10;;;2.53;;
17790;SDS011;9019;48.132;-1.210;2024-02-15T13:33:04;4.88;;;2.80;;
17790;SDS011;9019;48.132;-1.210;2024-02-15T13:35:32;3.83;;;2.58;;
17790;SDS011;9019;48.132;-1.210;2024-02-15T13:37:59;2.88;;;2.28;;
17790;SDS011;9019;48.132;-1.210;2024-02-15T13:40:27;3.15;;;2.45;;
17790;SDS011;9019;48.132;-1.210;2024-02-15T13:42:57;4.38;;;3.00;;
17790;SDS011;9019;48.132;-1.210;2024-02-15T13:45:24;5.07;;;2.67;;
17790;SDS011;9019;48.132;-1.210;2024-02-15T13:47:57;4.10;;;2.75;;
17790;SDS011;9019;48.132;-1.210;2024-02-15T13:50:28;4.85;;;2.80;;
17790;SDS011;9019;48.132;-1.210;2024-02-15T13:52:55;4.22;;;2.70;;
17790;SDS011;9019;48.132;-1.210;2024-02-15T13:55:23;5.20;;;2.72;;
17790;SDS011;9019;48.132;-1.210;2024-02-15T13:57:51;6.82;;;2.70;;
17790;SDS011;9019;48.132;-1.210;2024-02-15T14:00:18;3.25;;;2.50;;
17790;SDS011;9019;48.132;-1.210;2024-02-15T14:02:54;3.90;;;2.60;;
17790;SDS011;9019;48.132;-1.210;2024-02-15T14:05:22;4.03;;;2.65;;
17790;SDS011;9019;48.132;-1.210;2024-02-15T14:07:54;4.30;;;2.80;;
17790;SDS011;9019;48.132;-1.210;2024-02-15T14:10:21;7.57;;;3.10;;
17790;SDS011;9019;48.132;-1.210;2024-02-15T14:12:49;5.53;;;2.70;;
17790;SDS011;9019;48.132;-1.210;2024-02-15T14:15:17;5.00;;;2.75;;
17790;SDS011;9019;48.132;-1.210;2024-02-15T14:17:45;6.70;;;2.92;;
17790;SDS011;9019;48.132;-1.210;2024-02-15T14:20:12;6.18;;;2.90;;
17790;SDS011;9019;48.132;-1.210;2024-02-15T14:22:40;4.18;;;2.40;;
17790;SDS011;9019;48.132;-1.210;2024-02-15T14:25:10;6.63;;;2.97;;
17790;SDS011;9019;48.132;-1.210;2024-02-15T14:27:38;5.03;;;2.65;;
17790;SDS011;9019;48.132;-1.210;2024-02-15T14:30:06;3.58;;;2.70;;
17790;SDS011;9019;48.132;-1.210;2024-02-15T14:32:51;4.35;;;2.47;;
17790;SDS011;9019;48.132;-1.210;2024-02-15T14:35:32;3.58;;;2.38;;
17790;SDS011;9019;48.132;-1.210;2024-02-15T14:38:01;6.68;;;2.80;;
17790;SDS011;9019;48.132;-1.210;2024-02-15T14:40:32;4.82;;;2.90;;
17790;SDS011;9019;48.132;-1.210;2024-02-15T14:43:00;4.72;;;2.70;;
17790;SDS011;9019;48.132;-1.210;2024-02-15T14:45:27;5.07;;;2.67;;
17790;SDS011;9019;48.132;-1.210;2024-02-15T14:47:55;6.10;;;2.67;;
17790;SDS011;9019;48.132;-1.210;2024-02-15T14:50:22;4.35;;;2.67;;
17790;SDS011;9019;48.132;-1.210;2024-02-15T14:52:50;6.47;;;2.85;;
17790;SDS011;9019;48.132;-1.210;2024-02-15T14:55:18;4.20;;;2.65;;
17790;SDS011;9019;48.132;-1.210;2024-02-15T14:57:47;5.15;;;2.75;;
17790;SDS011;9019;48.132;-1.210;2024-02-15T15:00:15;5.32;;;2.78;;
17790;SDS011;9019;48.132;-1.210;2024-02-15T15:02:44;5.25;;;2.85;;
17790;SDS011;9019;48.132;-1.210;2024-02-15T15:05:12;6.22;;;2.58;;
17790;SDS011;9019;48.132;-1.210;2024-02-15T15:07:57;5.03;;;2.88;;